createdAt,value
2022-08-30T00:00:42.159Z,13.76
2022-08-30T00:03:14.796Z,13.73
2022-08-30T00:05:45.120Z,13.69
2022-08-30T00:08:13.767Z,13.69
2022-08-30T00:10:44.890Z,13.68
2022-08-30T00:13:14.187Z,13.68
2022-08-30T00:15:43.720Z,13.63
2022-08-30T00:18:12.065Z,13.58
2022-08-30T00:20:40.224Z,13.55
2022-08-30T00:23:09.712Z,13.51
2022-08-30T00:25:38.039Z,13.48
2022-08-30T00:28:06.622Z,13.45
2022-08-30T00:30:34.869Z,13.44
2022-08-30T00:33:02.986Z,13.44
2022-08-30T00:35:31.371Z,13.40
2022-08-30T00:37:59.569Z,13.44
2022-08-30T00:40:29.681Z,13.40
2022-08-30T00:42:59.968Z,13.37
2022-08-30T00:45:34.696Z,13.38
2022-08-30T00:48:03.361Z,13.38
2022-08-30T00:50:35.876Z,13.37
2022-08-30T00:53:09.703Z,13.37
2022-08-30T00:55:39.260Z,13.27
2022-08-30T00:58:16.132Z,13.27
2022-08-30T01:00:44.823Z,13.23
2022-08-30T01:03:13.032Z,13.20
2022-08-30T01:05:41.166Z,13.17
2022-08-30T01:08:09.357Z,13.14
2022-08-30T01:10:39.121Z,13.13
2022-08-30T01:13:07.449Z,13.08
2022-08-30T01:15:35.838Z,13.07
2022-08-30T01:18:04.276Z,13.07
2022-08-30T01:20:40.099Z,13.07
2022-08-30T01:23:12.449Z,13.08
2022-08-30T01:25:42.458Z,13.08
2022-08-30T01:28:12.342Z,13.07
2022-08-30T01:30:42.933Z,13.13
2022-08-30T01:33:12.250Z,13.21
2022-08-30T01:35:49.001Z,13.23
2022-08-30T01:38:19.213Z,13.27
2022-08-30T01:40:47.475Z,13.28
2022-08-30T01:43:17.417Z,13.30
2022-08-30T01:45:45.699Z,13.28
2022-08-30T01:48:13.978Z,13.30
2022-08-30T01:50:44.723Z,13.31
2022-08-30T01:53:15.207Z,13.31
2022-08-30T01:55:44.714Z,13.32
2022-08-30T01:58:13.059Z,13.34
2022-08-30T02:00:41.575Z,13.32
2022-08-30T02:03:09.700Z,13.34
2022-08-30T02:05:38.541Z,13.31
2022-08-30T02:08:06.902Z,13.34
2022-08-30T02:10:35.150Z,13.31
2022-08-30T02:13:04.594Z,13.28
2022-08-30T02:15:34.144Z,13.28
2022-08-30T02:18:11.168Z,13.30
2022-08-30T02:20:40.159Z,13.28
2022-08-30T02:23:08.222Z,13.24
2022-08-30T02:25:36.311Z,13.20
2022-08-30T02:28:06.124Z,13.14
2022-08-30T02:30:35.038Z,13.14
2022-08-30T02:33:03.424Z,13.11
2022-08-30T02:35:31.513Z,13.11
2022-08-30T02:37:59.773Z,13.08
2022-08-30T02:40:28.013Z,13.06
2022-08-30T02:42:56.965Z,13.03
2022-08-30T02:45:27.235Z,12.96
2022-08-30T02:47:56.673Z,12.93
2022-08-30T02:50:24.931Z,12.90
2022-08-30T02:52:54.311Z,12.87
2022-08-30T02:55:23.940Z,12.87
2022-08-30T02:57:52.017Z,12.89
2022-08-30T03:00:21.524Z,12.90
2022-08-30T03:02:51.078Z,12.86
2022-08-30T03:05:19.388Z,12.82
2022-08-30T03:07:48.330Z,12.76
2022-08-30T03:10:17.410Z,12.70
2022-08-30T03:12:48.071Z,12.65
2022-08-30T03:15:16.953Z,12.65
2022-08-30T03:17:45.251Z,12.62
2022-08-30T03:20:14.707Z,12.56
2022-08-30T03:22:42.842Z,12.56
2022-08-30T03:25:11.324Z,12.53
2022-08-30T03:27:39.645Z,12.53
2022-08-30T03:30:08.860Z,12.52
2022-08-30T03:32:37.133Z,12.49
2022-08-30T03:35:06.025Z,12.45
2022-08-30T03:37:35.843Z,12.45
2022-08-30T03:40:05.205Z,12.39
2022-08-30T03:42:34.623Z,12.38
2022-08-30T03:45:03.217Z,12.36
2022-08-30T03:47:31.587Z,12.35
2022-08-30T03:50:00.046Z,12.33
2022-08-30T03:52:28.514Z,12.33
2022-08-30T03:54:57.895Z,12.31
2022-08-30T03:57:26.005Z,12.31
2022-08-30T03:59:54.093Z,12.29
2022-08-30T04:02:22.361Z,12.33
2022-08-30T04:04:50.529Z,12.38
2022-08-30T04:07:19.124Z,12.39
2022-08-30T04:09:47.711Z,12.39
2022-08-30T04:12:18.330Z,12.42
2022-08-30T04:14:51.101Z,12.44
2022-08-30T04:17:19.346Z,12.42
2022-08-30T04:19:47.686Z,12.41
2022-08-30T04:22:16.029Z,12.51
2022-08-30T04:24:44.550Z,12.49
2022-08-30T04:27:12.644Z,12.53
2022-08-30T04:29:42.310Z,12.51
2022-08-30T04:32:10.687Z,12.48
2022-08-30T04:34:39.067Z,12.52
2022-08-30T04:37:07.200Z,12.55
2022-08-30T04:39:38.110Z,12.61
2022-08-30T04:42:06.991Z,12.63
2022-08-30T04:44:35.534Z,12.66
2022-08-30T04:47:05.089Z,12.70
2022-08-30T04:49:33.148Z,12.79
2022-08-30T04:52:01.147Z,12.84
2022-08-30T04:54:29.229Z,12.91
2022-08-30T04:56:57.300Z,13.01
2022-08-30T04:59:25.314Z,13.07
2022-08-30T05:01:53.706Z,13.19
2022-08-30T05:04:23.271Z,13.31
2022-08-30T05:06:51.619Z,13.38
2022-08-30T05:09:21.838Z,13.49
2022-08-30T05:11:50.100Z,13.59
2022-08-30T05:14:18.296Z,13.66
2022-08-30T05:16:46.640Z,13.76
2022-08-30T05:19:14.946Z,13.83
2022-08-30T05:21:44.368Z,13.96
2022-08-30T05:24:12.431Z,14.02
2022-08-30T05:26:40.898Z,14.13
2022-08-30T05:29:09.060Z,14.24
2022-08-30T05:31:37.814Z,14.37
2022-08-30T05:34:06.165Z,14.42
2022-08-30T05:36:36.945Z,14.45
2022-08-30T05:39:06.787Z,14.50
2022-08-30T05:41:37.504Z,14.51
2022-08-30T05:44:07.140Z,14.58
2022-08-30T05:46:35.821Z,14.65
2022-08-30T05:49:05.816Z,14.64
2022-08-30T05:51:35.674Z,14.74
2022-08-30T05:54:10.966Z,14.78
2022-08-30T05:56:39.766Z,14.84
2022-08-30T05:59:08.800Z,14.79
2022-08-30T06:01:38.552Z,14.88
2022-08-30T06:04:07.918Z,14.96
2022-08-30T06:06:38.740Z,15.18
2022-08-30T06:09:09.987Z,15.18
2022-08-30T06:11:38.486Z,15.22
2022-08-30T06:14:06.904Z,15.12
2022-08-30T06:16:35.659Z,15.26
2022-08-30T06:19:03.937Z,15.33
2022-08-30T06:21:34.336Z,15.40
2022-08-30T06:24:03.227Z,15.43
2022-08-30T06:29:01.000Z,15.58
2022-08-30T06:31:29.121Z,15.70
2022-08-30T06:33:57.193Z,15.73
2022-08-30T06:36:26.858Z,15.75
2022-08-30T06:38:56.957Z,15.64
2022-08-30T06:41:26.651Z,15.71
2022-08-30T06:43:56.962Z,15.67
2022-08-30T06:46:28.098Z,15.68
2022-08-30T06:48:57.308Z,15.67
2022-08-30T06:51:27.918Z,15.67
2022-08-30T06:53:55.908Z,15.68
2022-08-30T06:56:27.407Z,15.82
2022-08-30T06:58:56.895Z,16.01
2022-08-30T07:01:26.525Z,16.22
2022-08-30T07:03:55.526Z,16.42
2022-08-30T07:06:24.508Z,16.59
2022-08-30T07:08:56.380Z,16.81
2022-08-30T07:11:30.519Z,17.00
2022-08-30T07:13:59.981Z,17.25
2022-08-30T07:16:28.590Z,17.52
2022-08-30T07:18:56.729Z,17.73
2022-08-30T07:21:26.798Z,18.00
2022-08-30T07:23:55.632Z,18.32
2022-08-30T07:26:25.934Z,18.89
2022-08-30T07:28:55.963Z,19.57
2022-08-30T07:31:26.593Z,20.17
2022-08-30T07:33:54.966Z,20.53
2022-08-30T07:36:23.352Z,20.77
2022-08-30T07:38:53.684Z,20.99
2022-08-30T07:41:23.842Z,21.59
2022-08-30T07:43:52.622Z,22.18
2022-08-30T07:46:21.770Z,22.79
2022-08-30T07:48:51.528Z,23.03
2022-08-30T07:51:22.026Z,23.34
2022-08-30T07:53:50.449Z,23.64
2022-08-30T07:56:18.580Z,23.74
2022-08-30T07:58:46.647Z,23.99
2022-08-30T08:01:15.617Z,24.19
2022-08-30T08:03:44.422Z,24.20
2022-08-30T08:06:15.580Z,24.63
2022-08-30T08:08:45.389Z,25.05
2022-08-30T08:11:16.317Z,25.08
2022-08-30T08:13:53.303Z,24.94
2022-08-30T08:16:23.113Z,24.78
2022-08-30T08:18:51.571Z,24.50
2022-08-30T08:21:20.951Z,24.16
2022-08-30T08:23:49.270Z,24.02
2022-08-30T08:26:17.305Z,24.28
2022-08-30T08:28:47.038Z,24.78
2022-08-30T08:31:16.325Z,25.26
2022-08-30T08:33:44.680Z,25.59
2022-08-30T08:36:13.830Z,25.59
2022-08-30T08:38:43.268Z,25.83
2022-08-30T08:41:15.034Z,26.20
2022-08-30T08:43:43.766Z,26.03
2022-08-30T08:46:15.851Z,25.82
2022-08-30T08:48:59.543Z,25.75
2022-08-30T08:51:47.319Z,26.05
2022-08-30T08:54:22.968Z,26.75
2022-08-30T08:56:51.080Z,27.34
2022-08-30T08:59:19.318Z,27.71
2022-08-30T09:01:48.492Z,27.63
2022-08-30T09:04:20.625Z,27.30
2022-08-30T09:06:56.593Z,26.88
2022-08-30T09:09:28.842Z,26.38
2022-08-30T09:11:56.964Z,25.96
2022-08-30T09:14:30.270Z,25.43
2022-08-30T09:17:03.629Z,24.88
2022-08-30T09:19:35.158Z,24.08
2022-08-30T09:22:05.741Z,23.03
2022-08-30T09:24:40.969Z,22.24
2022-08-30T09:27:24.264Z,21.65
2022-08-30T09:29:55.849Z,21.18
2022-08-30T09:32:25.861Z,20.85
2022-08-30T09:34:53.816Z,20.54
2022-08-30T09:37:35.768Z,20.47
2022-08-30T09:40:11.948Z,20.84
2022-08-30T09:42:40.338Z,21.79
2022-08-30T09:45:20.466Z,22.38
2022-08-30T09:47:48.492Z,22.59
2022-08-30T09:50:18.154Z,23.03
2022-08-30T09:52:59.051Z,23.92
2022-08-30T09:55:55.879Z,25.12
2022-08-30T09:58:38.985Z,25.83
2022-08-30T10:01:13.190Z,24.90
2022-08-30T10:03:45.043Z,23.92
2022-08-30T10:06:19.614Z,23.24
2022-08-30T10:08:55.211Z,22.51
2022-08-30T10:11:29.920Z,21.69
2022-08-30T10:14:09.788Z,21.81
2022-08-30T10:16:46.901Z,21.83
2022-08-30T10:19:25.151Z,21.80
2022-08-30T10:21:58.194Z,21.79
2022-08-30T10:24:33.483Z,21.74
2022-08-30T10:27:07.592Z,21.69
2022-08-30T10:29:42.509Z,21.43
2022-08-30T10:32:16.131Z,21.25
2022-08-30T10:34:48.262Z,21.62
2022-08-30T10:37:21.176Z,22.13
2022-08-30T10:39:51.606Z,22.07
2022-08-30T10:42:26.894Z,22.48
2022-08-30T10:44:59.913Z,22.34
2022-08-30T10:47:36.917Z,22.49
2022-08-30T10:50:12.146Z,22.00
2022-08-30T10:52:43.101Z,21.73
2022-08-30T10:55:19.464Z,21.94
2022-08-30T10:57:49.016Z,22.05
2022-08-30T11:00:25.072Z,22.39
2022-08-30T11:03:16.594Z,23.04
2022-08-30T11:06:06.962Z,22.68
2022-08-30T11:08:46.988Z,22.58
2022-08-30T11:11:23.574Z,22.59
2022-08-30T11:13:56.976Z,22.73
2022-08-30T11:16:36.518Z,22.76
2022-08-30T11:19:05.265Z,22.75
2022-08-30T11:21:35.486Z,22.39
2022-08-30T11:24:11.130Z,22.44
2022-08-30T11:26:57.186Z,22.34
2022-08-30T11:29:47.516Z,22.10
2022-08-30T11:32:59.414Z,22.08
2022-08-30T11:35:38.381Z,22.80
2022-08-30T11:38:15.216Z,23.47
2022-08-30T11:40:50.094Z,24.46
2022-08-30T11:43:49.796Z,24.97
2022-08-30T11:46:24.280Z,24.43
2022-08-30T11:48:55.593Z,24.49
2022-08-30T11:51:34.357Z,24.22
2022-08-30T11:54:12.150Z,24.10
2022-08-30T11:56:48.588Z,24.05
2022-08-30T11:59:24.791Z,24.02
2022-08-30T12:01:54.437Z,23.82
2022-08-30T12:04:37.429Z,23.50
2022-08-30T12:07:07.852Z,23.22
2022-08-30T12:10:06.041Z,22.65
2022-08-30T12:12:52.175Z,23.13
2022-08-30T12:15:57.092Z,23.81
2022-08-30T12:18:32.688Z,24.37
2022-08-30T12:21:16.492Z,24.81
2022-08-30T12:23:50.663Z,25.04
2022-08-30T12:26:30.481Z,24.59
2022-08-30T12:29:14.418Z,24.41
2022-08-30T12:31:45.474Z,24.36
2022-08-30T12:34:23.188Z,24.53
2022-08-30T12:36:58.960Z,24.71
2022-08-30T12:39:29.227Z,24.95
2022-08-30T12:41:58.159Z,25.11
2022-08-30T12:44:28.079Z,25.08
2022-08-30T12:46:59.699Z,24.87
2022-08-30T12:49:31.835Z,24.59
2022-08-30T12:52:15.980Z,24.46
2022-08-30T12:54:45.259Z,24.03
2022-08-30T12:57:19.627Z,23.70
2022-08-30T13:00:02.679Z,23.55
2022-08-30T13:02:44.084Z,23.55
2022-08-30T13:05:37.376Z,23.51
2022-08-30T13:08:13.137Z,23.41
2022-08-30T13:10:51.372Z,23.40
2022-08-30T13:13:29.614Z,23.38
2022-08-30T13:15:57.617Z,23.40
2022-08-30T13:18:30.746Z,23.44
2022-08-30T13:21:20.938Z,23.45
2022-08-30T13:23:49.196Z,23.33
2022-08-30T13:26:23.110Z,23.31
2022-08-30T13:28:52.816Z,23.31
2022-08-30T13:31:22.432Z,23.34
2022-08-30T13:33:53.297Z,23.41
2022-08-30T13:36:24.719Z,23.55
2022-08-30T13:38:53.253Z,23.67
2022-08-30T13:41:21.414Z,23.84
2022-08-30T13:46:37.721Z,24.02
2022-08-30T13:49:42.992Z,23.95
2022-08-30T13:52:19.205Z,23.75
2022-08-30T13:54:46.464Z,23.81
2022-08-30T13:57:53.641Z,23.95
2022-08-30T14:00:12.669Z,24.05
2022-08-30T14:02:46.687Z,24.05
2022-08-30T14:05:47.077Z,23.50
2022-08-30T14:08:44.410Z,22.75
2022-08-30T14:10:57.631Z,22.62
2022-08-30T14:13:28.829Z,22.66
2022-08-30T14:18:46.311Z,22.64
2022-08-30T14:21:14.328Z,22.38
2022-08-30T14:23:43.739Z,22.16
2022-08-30T14:26:14.790Z,22.32
2022-08-30T14:28:45.708Z,22.27
2022-08-30T14:31:14.319Z,22.18
2022-08-30T14:33:42.666Z,22.16
2022-08-30T14:36:15.861Z,22.10
2022-08-30T14:38:45.633Z,22.04
2022-08-30T14:41:13.685Z,21.90
2022-08-30T14:43:42.083Z,21.93
2022-08-30T14:46:11.640Z,22.00
2022-08-30T14:48:39.920Z,21.97
2022-08-30T14:51:13.834Z,22.02
2022-08-30T14:53:42.098Z,21.96
2022-08-30T14:56:15.493Z,21.84
2022-08-30T14:58:43.595Z,21.63
2022-08-30T15:01:13.052Z,21.52
2022-08-30T15:03:42.264Z,21.49
2022-08-30T15:06:10.741Z,21.49
2022-08-30T15:08:39.496Z,21.60
2022-08-30T15:11:09.344Z,21.67
2022-08-30T15:13:39.210Z,21.60
2022-08-30T15:16:11.767Z,21.49
2022-08-30T15:18:39.917Z,21.42
2022-08-30T15:21:09.950Z,21.31
2022-08-30T15:23:38.082Z,21.28
2022-08-30T15:26:08.109Z,21.15
2022-08-30T15:28:38.723Z,21.01
2022-08-30T15:31:09.454Z,20.90
2022-08-30T15:33:38.152Z,20.87
2022-08-30T15:36:07.309Z,20.91
2022-08-30T15:38:35.970Z,20.91
2022-08-30T15:41:07.905Z,20.90
2022-08-30T15:43:37.738Z,20.88
2022-08-30T15:46:16.892Z,20.95
2022-08-30T15:48:46.052Z,21.01
2022-08-30T15:51:15.209Z,20.98
2022-08-30T15:53:43.655Z,20.98
2022-08-30T15:56:12.170Z,20.92
2022-08-30T15:58:42.988Z,20.82
2022-08-30T16:01:11.743Z,20.74
2022-08-30T16:03:44.844Z,20.65
2022-08-30T16:06:13.935Z,20.65
2022-08-30T16:08:42.777Z,20.70
2022-08-30T16:11:12.444Z,20.68
2022-08-30T16:13:42.571Z,20.64
2022-08-30T16:16:12.265Z,20.63
2022-08-30T16:18:40.934Z,20.67
2022-08-30T16:21:12.442Z,20.73
2022-08-30T16:23:43.037Z,20.70
2022-08-30T16:26:17.407Z,20.73
2022-08-30T16:28:47.817Z,20.78
2022-08-30T16:31:18.996Z,20.73
2022-08-30T16:33:47.908Z,20.71
2022-08-30T16:36:21.677Z,20.71
2022-08-30T16:38:53.567Z,20.61
2022-08-30T16:41:24.965Z,20.50
2022-08-30T16:43:55.415Z,20.41
2022-08-30T16:46:27.095Z,20.37
2022-08-30T16:48:58.005Z,20.30
2022-08-30T16:51:28.499Z,20.24
2022-08-30T16:53:57.292Z,20.15
2022-08-30T16:56:27.213Z,20.06
2022-08-30T16:59:02.014Z,20.01
2022-08-30T17:01:51.736Z,19.96
2022-08-30T17:04:21.382Z,19.90
2022-08-30T17:06:50.954Z,19.86
2022-08-30T17:09:20.360Z,19.83
2022-08-30T17:11:50.180Z,19.82
2022-08-30T17:14:28.077Z,19.79
2022-08-30T17:16:58.500Z,19.76
2022-08-30T17:19:29.623Z,19.75
2022-08-30T17:21:58.373Z,19.78
2022-08-30T17:24:27.859Z,19.76
2022-08-30T17:26:58.329Z,19.82
2022-08-30T17:29:28.938Z,19.90
2022-08-30T17:31:57.906Z,19.98
2022-08-30T17:34:28.363Z,19.96
2022-08-30T17:37:00.190Z,19.89
2022-08-30T17:39:30.067Z,19.86
2022-08-30T17:42:00.918Z,19.81
2022-08-30T17:44:33.422Z,19.79
2022-08-30T17:47:02.259Z,19.68
2022-08-30T17:49:33.527Z,19.64
2022-08-30T17:52:03.082Z,19.58
2022-08-30T17:54:35.466Z,19.54
2022-08-30T17:57:10.932Z,19.50
2022-08-30T17:59:41.217Z,19.44
2022-08-30T18:02:11.161Z,19.37
2022-08-30T18:04:41.781Z,19.31
2022-08-30T18:07:12.203Z,19.27
2022-08-30T18:09:41.507Z,19.20
2022-08-30T18:12:10.966Z,19.10
2022-08-30T18:14:41.113Z,19.03
2022-08-30T18:17:10.628Z,18.93
2022-08-30T18:19:46.084Z,18.87
2022-08-30T18:22:16.072Z,18.83
2022-08-30T18:24:45.248Z,18.80
2022-08-30T18:27:13.749Z,18.78
2022-08-30T18:29:44.496Z,18.73
2022-08-30T18:32:16.526Z,18.68
2022-08-30T18:34:47.710Z,18.59
2022-08-30T18:37:17.183Z,18.56
2022-08-30T18:39:46.057Z,18.55
2022-08-30T18:42:16.045Z,18.48
2022-08-30T18:44:46.155Z,18.44
2022-08-30T18:47:15.023Z,18.39
2022-08-30T18:49:45.451Z,18.42
2022-08-30T18:52:14.949Z,18.35
2022-08-30T18:54:49.700Z,18.28
2022-08-30T18:57:20.290Z,18.27
2022-08-30T18:59:51.189Z,18.24
2022-08-30T19:02:20.107Z,18.22
2022-08-30T19:04:49.312Z,18.21
2022-08-30T19:07:19.472Z,18.21
2022-08-30T19:09:48.920Z,18.20
2022-08-30T19:12:19.902Z,18.11
2022-08-30T19:14:51.091Z,18.07
2022-08-30T19:17:20.043Z,18.01
2022-08-30T19:19:52.119Z,18.03
2022-08-30T19:22:22.568Z,17.99
2022-08-30T19:24:55.146Z,17.93
2022-08-30T19:27:39.872Z,17.91
2022-08-30T19:30:16.124Z,17.87
2022-08-30T19:32:47.815Z,17.86
2022-08-30T19:35:17.823Z,17.79
2022-08-30T19:37:48.421Z,17.73
2022-08-30T19:40:19.474Z,17.66
2022-08-30T19:42:50.321Z,17.63
2022-08-30T19:45:21.913Z,17.58
2022-08-30T19:47:50.941Z,17.49
2022-08-30T19:50:20.343Z,17.46
2022-08-30T19:52:54.300Z,17.41
2022-08-30T19:55:30.245Z,17.38
2022-08-30T19:58:00.301Z,17.35
2022-08-30T20:00:31.265Z,17.29
2022-08-30T20:03:01.702Z,17.24
2022-08-30T20:05:30.399Z,17.12
2022-08-30T20:07:58.979Z,17.02
2022-08-30T20:10:27.601Z,16.95
2022-08-30T20:12:56.653Z,16.84
2022-08-30T20:15:29.550Z,16.79
2022-08-30T20:18:14.330Z,16.71
2022-08-30T20:20:49.483Z,16.64
2022-08-30T20:23:22.808Z,16.59
2022-08-30T20:25:52.442Z,16.52
2022-08-30T20:28:21.815Z,16.46
2022-08-30T20:30:52.695Z,16.40
2022-08-30T20:33:23.554Z,16.36
2022-08-30T20:35:53.031Z,16.32
2022-08-30T20:38:22.135Z,16.28
2022-08-30T20:40:52.643Z,16.23
2022-08-30T20:43:23.189Z,16.25
2022-08-30T20:45:53.827Z,16.26
2022-08-30T20:48:22.885Z,16.23
2022-08-30T20:50:52.289Z,16.22
2022-08-30T20:53:21.069Z,16.18
2022-08-30T20:55:49.869Z,16.16
2022-08-30T20:58:18.764Z,16.16
2022-08-30T21:00:52.909Z,16.11
2022-08-30T21:03:26.066Z,16.12
2022-08-30T21:05:57.291Z,16.08
2022-08-30T21:08:26.176Z,16.05
2022-08-30T21:10:55.904Z,16.00
2022-08-30T21:13:25.001Z,16.00
2022-08-30T21:16:00.434Z,15.98
2022-08-30T21:18:34.305Z,15.94
2022-08-30T21:21:09.626Z,15.92
2022-08-30T21:23:38.644Z,15.92
2022-08-30T21:26:08.034Z,15.87
2022-08-30T21:28:37.501Z,15.85
2022-08-30T21:31:10.459Z,15.85
2022-08-30T21:33:39.584Z,15.79
2022-08-30T21:36:25.701Z,15.77
2022-08-30T21:38:54.725Z,15.74
2022-08-30T21:41:30.362Z,15.70
2022-08-30T21:44:00.845Z,15.77
2022-08-30T21:46:32.078Z,15.79
2022-08-30T21:49:02.505Z,15.79
2022-08-30T21:51:34.639Z,15.81
2022-08-30T21:54:04.677Z,15.81
2022-08-30T21:56:33.385Z,15.82
2022-08-30T21:59:02.363Z,15.87
2022-08-30T22:01:38.933Z,15.91
2022-08-30T22:04:29.674Z,15.98
2022-08-30T22:06:58.608Z,16.01
2022-08-30T22:09:27.191Z,16.05
2022-08-30T22:11:55.857Z,16.09
2022-08-30T22:14:26.490Z,16.12
2022-08-30T22:16:57.380Z,16.12
2022-08-30T22:19:26.379Z,16.14
2022-08-30T22:22:01.074Z,16.15
2022-08-30T22:24:32.496Z,16.15
2022-08-30T22:27:03.057Z,16.15
2022-08-30T22:29:31.148Z,16.16
2022-08-30T22:32:00.762Z,16.14
2022-08-30T22:34:29.059Z,16.14
2022-08-30T22:36:57.068Z,16.12
2022-08-30T22:39:26.618Z,16.11
2022-08-30T22:41:55.081Z,16.08
2022-08-30T22:44:23.157Z,16.08
2022-08-30T22:46:51.543Z,16.05
2022-08-30T22:49:21.037Z,16.04
2022-08-30T22:51:49.033Z,16.02
2022-08-30T22:54:17.463Z,15.98
2022-08-30T22:56:45.545Z,15.91
2022-08-30T22:59:13.706Z,15.87
2022-08-30T23:01:43.794Z,15.81
2022-08-30T23:04:13.011Z,15.75
2022-08-30T23:06:50.163Z,15.70
2022-08-30T23:09:18.904Z,15.63
2022-08-30T23:11:47.169Z,15.54
2022-08-30T23:14:15.800Z,15.50
2022-08-30T23:16:43.892Z,15.46
2022-08-30T23:19:12.247Z,15.42
2022-08-30T23:21:41.709Z,15.36
2022-08-30T23:24:27.873Z,15.32
2022-08-30T23:27:13.828Z,15.26
2022-08-30T23:29:59.655Z,15.22
2022-08-30T23:32:45.710Z,15.16
2022-08-30T23:35:31.943Z,15.10
2022-08-30T23:38:22.331Z,15.06
2022-08-30T23:41:08.177Z,14.99
2022-08-30T23:43:54.240Z,14.92
2022-08-30T23:46:40.156Z,14.84
2022-08-30T23:49:25.741Z,14.75
2022-08-30T23:52:11.588Z,14.65
2022-08-30T23:54:58.403Z,14.54
2022-08-30T23:57:44.805Z,14.47
